createdAt,value
2022-09-16T00:00:27.877Z,15.10
2022-09-16T00:02:55.020Z,15.10
2022-09-16T00:05:21.823Z,15.10
2022-09-16T00:07:48.648Z,15.10
2022-09-16T00:10:15.452Z,15.10
2022-09-16T00:12:42.284Z,15.10
2022-09-16T00:15:10.149Z,15.10
2022-09-16T00:17:37.993Z,15.00
2022-09-16T00:20:06.079Z,15.00
2022-09-16T00:22:32.966Z,15.00
2022-09-16T00:24:59.800Z,15.00
2022-09-16T00:27:26.767Z,15.00
2022-09-16T00:29:53.804Z,15.00
2022-09-16T00:32:20.719Z,14.90
2022-09-16T00:34:47.550Z,14.90
2022-09-16T00:37:14.290Z,14.90
2022-09-16T00:39:41.113Z,14.90
2022-09-16T00:42:11.135Z,14.80
2022-09-16T00:44:58.043Z,14.80
2022-09-16T00:47:30.311Z,14.90
2022-09-16T00:49:59.534Z,14.90
2022-09-16T00:52:27.056Z,14.90
2022-09-16T00:54:53.781Z,14.80
2022-09-16T00:57:20.555Z,14.90
2022-09-16T00:59:49.275Z,14.90
2022-09-16T01:02:17.419Z,14.90
2022-09-16T01:04:52.733Z,14.90
2022-09-16T01:07:44.311Z,14.80
2022-09-16T01:10:12.772Z,14.90
2022-09-16T01:12:39.655Z,14.90
2022-09-16T01:15:06.768Z,14.90
2022-09-16T01:17:45.479Z,14.80
2022-09-16T01:20:39.311Z,14.90
2022-09-16T01:23:27.608Z,14.90
2022-09-16T01:26:03.320Z,14.90
2022-09-16T01:29:04.223Z,14.90
2022-09-16T01:31:43.169Z,14.90
2022-09-16T01:34:47.804Z,14.80
2022-09-16T01:37:36.862Z,14.80
2022-09-16T01:40:33.461Z,14.80
2022-09-16T01:43:25.776Z,14.80
2022-09-16T01:46:21.406Z,14.70
2022-09-16T01:49:00.805Z,14.70
2022-09-16T01:52:05.925Z,14.70
2022-09-16T01:54:41.558Z,14.60
2022-09-16T01:57:22.155Z,14.60
2022-09-16T01:59:50.562Z,14.60
2022-09-16T02:02:23.944Z,14.50
2022-09-16T02:04:54.661Z,14.50
2022-09-16T02:07:23.531Z,14.50
2022-09-16T02:09:53.039Z,14.50
2022-09-16T02:12:22.476Z,14.40
2022-09-16T02:14:49.234Z,14.40
2022-09-16T02:17:17.942Z,14.40
2022-09-16T02:20:11.268Z,14.50
2022-09-16T02:22:43.734Z,14.40
2022-09-16T02:25:10.998Z,14.50
2022-09-16T02:27:38.255Z,14.40
2022-09-16T02:30:10.497Z,14.40
2022-09-16T02:32:42.366Z,14.40
2022-09-16T02:35:10.268Z,14.50
2022-09-16T02:37:47.329Z,14.50
2022-09-16T02:40:25.213Z,14.40
2022-09-16T02:42:52.280Z,14.50
2022-09-16T02:45:21.109Z,14.50
2022-09-16T02:48:04.471Z,14.40
2022-09-16T02:50:41.560Z,14.50
2022-09-16T02:53:15.004Z,14.40
2022-09-16T02:55:47.593Z,14.50
2022-09-16T02:58:14.314Z,14.50
2022-09-16T03:00:44.777Z,14.50
2022-09-16T03:03:11.516Z,14.50
2022-09-16T03:05:39.871Z,14.50
2022-09-16T03:08:07.316Z,14.50
2022-09-16T03:10:39.570Z,14.40
2022-09-16T03:13:12.401Z,14.40
2022-09-16T03:15:59.373Z,14.50
2022-09-16T03:18:26.118Z,14.50
2022-09-16T03:21:10.785Z,14.50
2022-09-16T03:23:53.197Z,14.50
2022-09-16T03:26:38.858Z,14.50
2022-09-16T03:29:45.788Z,14.50
2022-09-16T03:32:18.419Z,14.50
2022-09-16T03:34:46.179Z,14.50
2022-09-16T03:37:15.233Z,14.40
2022-09-16T03:39:50.843Z,14.40
2022-09-16T03:42:17.651Z,14.30
2022-09-16T03:44:44.399Z,14.30
2022-09-16T03:47:11.496Z,14.30
2022-09-16T03:49:52.465Z,14.30
2022-09-16T03:52:28.275Z,14.20
2022-09-16T03:55:11.266Z,14.20
2022-09-16T03:57:50.186Z,14.20
2022-09-16T04:00:34.667Z,14.20
2022-09-16T04:03:16.212Z,14.20
2022-09-16T04:06:06.878Z,14.20
2022-09-16T04:08:48.983Z,14.20
2022-09-16T04:11:25.083Z,14.10
2022-09-16T04:14:02.487Z,14.20
2022-09-16T04:16:37.408Z,14.10
2022-09-16T04:19:19.323Z,14.10
2022-09-16T04:22:05.129Z,14.10
2022-09-16T04:24:44.225Z,14.10
2022-09-16T04:27:28.243Z,14.10
2022-09-16T04:30:06.349Z,14.10
2022-09-16T04:32:44.930Z,14.10
2022-09-16T04:35:14.905Z,14.00
2022-09-16T04:37:41.662Z,14.00
2022-09-16T04:40:11.689Z,14.10
2022-09-16T04:42:38.480Z,14.10
2022-09-16T04:45:05.973Z,14.10
2022-09-16T04:47:33.190Z,14.10
2022-09-16T04:49:59.934Z,14.10
2022-09-16T04:52:27.069Z,14.20
2022-09-16T04:54:53.887Z,14.20
2022-09-16T04:57:20.692Z,14.30
2022-09-16T04:59:47.427Z,14.20
2022-09-16T05:02:14.337Z,14.20
2022-09-16T05:04:41.213Z,14.20
2022-09-16T05:07:09.175Z,14.30
2022-09-16T05:09:37.637Z,14.30
2022-09-16T05:12:04.596Z,14.30
2022-09-16T05:14:31.488Z,14.30
2022-09-16T05:16:58.307Z,14.40
2022-09-16T05:19:25.203Z,14.30
2022-09-16T05:21:52.005Z,14.40
2022-09-16T05:24:18.757Z,14.40
2022-09-16T05:26:45.506Z,14.50
2022-09-16T05:29:15.649Z,14.40
2022-09-16T05:31:45.207Z,14.50
2022-09-16T05:34:19.838Z,14.50
2022-09-16T05:36:48.009Z,14.50
2022-09-16T05:39:26.227Z,14.50
2022-09-16T05:41:57.279Z,14.50
2022-09-16T05:44:24.643Z,14.60
2022-09-16T05:46:51.752Z,14.60
2022-09-16T05:49:21.009Z,14.70
2022-09-16T05:51:51.087Z,14.80
2022-09-16T05:54:20.840Z,14.90
2022-09-16T05:56:47.758Z,14.90
2022-09-16T05:59:14.851Z,15.00
2022-09-16T06:01:41.734Z,15.10
2022-09-16T06:04:11.015Z,15.10
2022-09-16T06:06:39.330Z,15.20
2022-09-16T06:09:17.140Z,15.30
2022-09-16T06:11:45.992Z,15.30
2022-09-16T06:14:13.286Z,15.40
2022-09-16T06:16:40.255Z,15.40
2022-09-16T06:19:10.601Z,15.50
2022-09-16T06:21:39.313Z,15.50
2022-09-16T06:24:09.300Z,15.50
2022-09-16T06:26:37.591Z,15.40
2022-09-16T06:29:05.772Z,15.50
2022-09-16T06:31:32.706Z,15.70
2022-09-16T06:33:59.833Z,16.10
2022-09-16T06:36:40.337Z,16.90
2022-09-16T06:39:11.864Z,17.50
2022-09-16T06:41:39.678Z,17.90
2022-09-16T06:44:06.528Z,18.00
2022-09-16T06:46:33.579Z,18.20
2022-09-16T06:49:04.509Z,18.50
2022-09-16T06:51:32.950Z,19.10
2022-09-16T06:54:01.751Z,19.40
2022-09-16T06:56:30.879Z,19.60
2022-09-16T06:59:00.902Z,19.60
2022-09-16T07:01:29.632Z,19.50
2022-09-16T07:03:57.750Z,19.30
2022-09-16T07:06:44.927Z,19.30
2022-09-16T07:09:12.519Z,19.30
2022-09-16T07:11:40.787Z,19.30
2022-09-16T07:14:09.435Z,19.30
2022-09-16T07:16:39.508Z,19.30
2022-09-16T07:19:06.402Z,19.30
2022-09-16T07:21:33.205Z,19.20
2022-09-16T07:24:01.277Z,19.20
2022-09-16T07:26:30.237Z,19.00
2022-09-16T07:28:59.694Z,18.90
2022-09-16T07:31:28.413Z,18.70
2022-09-16T07:34:01.292Z,18.60
2022-09-16T07:36:33.724Z,18.50
2022-09-16T07:39:00.692Z,18.40
2022-09-16T07:41:35.439Z,18.40
2022-09-16T07:44:02.786Z,18.30
2022-09-16T07:46:31.004Z,18.30
2022-09-16T07:48:58.562Z,18.20
2022-09-16T07:51:25.751Z,18.20
2022-09-16T07:53:58.602Z,18.10
2022-09-16T07:56:26.886Z,18.00
2022-09-16T07:58:54.673Z,17.90
2022-09-16T08:01:21.815Z,17.80
2022-09-16T08:03:49.089Z,17.70
2022-09-16T08:06:29.432Z,17.60
2022-09-16T08:09:36.860Z,17.50
2022-09-16T08:12:08.304Z,17.40
2022-09-16T08:14:56.826Z,17.30
2022-09-16T08:17:41.915Z,17.20
2022-09-16T08:20:28.951Z,17.20
2022-09-16T08:23:15.277Z,17.10
2022-09-16T08:25:59.380Z,17.20
2022-09-16T08:28:57.532Z,17.40
2022-09-16T08:31:39.244Z,17.80
2022-09-16T08:34:17.312Z,18.30
2022-09-16T08:36:59.115Z,18.40
2022-09-16T08:39:40.432Z,18.60
2022-09-16T08:42:24.863Z,18.70
2022-09-16T08:45:13.658Z,18.60
2022-09-16T08:48:08.786Z,18.60
2022-09-16T08:50:48.396Z,18.60
2022-09-16T08:53:53.083Z,18.90
2022-09-16T08:56:34.337Z,19.10
2022-09-16T08:59:14.785Z,19.40
2022-09-16T09:02:03.912Z,19.80
2022-09-16T09:04:45.369Z,20.10
2022-09-16T09:07:33.863Z,20.40
2022-09-16T09:10:35.287Z,20.70
2022-09-16T09:13:43.442Z,20.80
2022-09-16T09:16:35.493Z,20.50
2022-09-16T09:19:24.289Z,20.40
2022-09-16T09:22:12.380Z,20.20
2022-09-16T09:25:07.378Z,20.20
2022-09-16T09:28:30.195Z,20.10
2022-09-16T09:31:18.070Z,20.00
2022-09-16T09:34:34.169Z,19.80
2022-09-16T09:37:23.954Z,19.80
2022-09-16T09:40:31.193Z,19.60
2022-09-16T09:43:44.870Z,19.50
2022-09-16T09:46:29.175Z,19.40
2022-09-16T09:49:46.939Z,19.30
2022-09-16T09:52:44.342Z,19.20
2022-09-16T09:55:21.013Z,19.30
2022-09-16T09:58:01.783Z,19.50
2022-09-16T10:00:28.817Z,19.50
2022-09-16T10:03:06.690Z,19.40
2022-09-16T10:05:33.913Z,19.40
2022-09-16T10:08:23.966Z,19.30
2022-09-16T10:10:59.619Z,19.20
2022-09-16T10:13:27.301Z,19.10
2022-09-16T10:15:55.964Z,19.00
2022-09-16T10:18:27.087Z,18.80
2022-09-16T10:21:14.810Z,18.60
2022-09-16T10:23:41.619Z,18.50
2022-09-16T10:26:21.726Z,18.40
2022-09-16T10:29:01.733Z,18.40
2022-09-16T10:31:40.555Z,18.40
2022-09-16T10:34:33.921Z,18.40
2022-09-16T10:37:03.647Z,18.50
2022-09-16T10:39:30.549Z,18.50
2022-09-16T10:41:57.363Z,18.40
2022-09-16T10:44:25.937Z,18.50
2022-09-16T10:47:03.028Z,18.40
2022-09-16T10:49:47.798Z,18.60
2022-09-16T10:52:31.193Z,18.70
2022-09-16T10:54:58.168Z,18.80
2022-09-16T10:57:30.441Z,18.80
2022-09-16T11:00:18.417Z,18.80
2022-09-16T11:03:24.883Z,18.80
2022-09-16T11:05:51.631Z,18.80
2022-09-16T11:08:30.679Z,18.70
2022-09-16T11:11:11.095Z,18.70
2022-09-16T11:13:44.756Z,18.60
2022-09-16T11:16:48.325Z,18.60
2022-09-16T11:19:36.522Z,18.60
2022-09-16T11:22:10.688Z,18.60
2022-09-16T11:24:58.908Z,18.50
2022-09-16T11:27:56.909Z,18.60
2022-09-16T11:30:23.743Z,18.60
2022-09-16T11:33:03.326Z,18.50
2022-09-16T11:36:07.255Z,18.50
2022-09-16T11:38:42.382Z,18.50
2022-09-16T11:41:20.611Z,18.60
2022-09-16T11:44:09.058Z,18.40
2022-09-16T11:47:17.453Z,18.50
2022-09-16T11:50:16.045Z,18.50
2022-09-16T11:52:47.786Z,18.60
2022-09-16T11:55:18.394Z,18.60
2022-09-16T11:57:48.835Z,18.70
2022-09-16T12:00:17.345Z,18.60
2022-09-16T12:02:59.517Z,18.70
2022-09-16T12:05:36.714Z,18.70
2022-09-16T12:08:22.987Z,18.70
2022-09-16T12:10:57.231Z,18.80
2022-09-16T12:13:28.518Z,19.00
2022-09-16T12:15:59.342Z,19.10
2022-09-16T12:18:42.966Z,19.30
2022-09-16T12:21:33.713Z,19.30
2022-09-16T12:24:06.531Z,19.30
2022-09-16T12:26:34.909Z,19.30
2022-09-16T12:29:28.430Z,19.30
2022-09-16T12:32:06.464Z,19.40
2022-09-16T12:34:53.377Z,19.40
2022-09-16T12:37:34.202Z,19.40
2022-09-16T12:40:01.835Z,19.60
2022-09-16T12:42:37.583Z,19.80
2022-09-16T12:45:16.354Z,19.80
2022-09-16T12:48:11.216Z,19.90
2022-09-16T12:51:01.534Z,19.80
2022-09-16T12:53:53.098Z,19.70
2022-09-16T12:56:28.921Z,19.60
2022-09-16T12:59:20.614Z,19.60
2022-09-16T13:01:50.800Z,19.60
2022-09-16T13:04:27.752Z,19.50
2022-09-16T13:06:58.272Z,19.40
2022-09-16T13:09:36.301Z,19.30
2022-09-16T13:12:40.873Z,19.40
2022-09-16T13:15:08.311Z,19.40
2022-09-16T13:17:37.101Z,19.50
2022-09-16T13:20:13.318Z,19.50
2022-09-16T13:22:58.791Z,19.60
2022-09-16T13:25:28.632Z,19.60
2022-09-16T13:28:22.526Z,19.50
2022-09-16T13:30:49.322Z,19.60
2022-09-16T13:33:20.828Z,19.60
2022-09-16T13:35:49.872Z,19.50
2022-09-16T13:38:19.786Z,19.40
2022-09-16T13:40:57.518Z,19.30
2022-09-16T13:43:34.745Z,19.20
2022-09-16T13:46:03.744Z,19.10
2022-09-16T13:48:33.259Z,19.10
2022-09-16T13:51:00.453Z,19.00
2022-09-16T13:53:45.105Z,19.00
2022-09-16T13:56:24.135Z,18.90
2022-09-16T13:59:01.544Z,18.80
2022-09-16T14:01:56.001Z,18.90
2022-09-16T14:05:13.766Z,18.80
2022-09-16T14:07:46.725Z,18.80
2022-09-16T14:10:17.261Z,18.90
2022-09-16T14:13:11.173Z,18.90
2022-09-16T14:16:00.045Z,18.90
2022-09-16T14:18:29.865Z,19.00
2022-09-16T14:20:56.622Z,18.90
2022-09-16T14:23:24.442Z,18.90
2022-09-16T14:25:52.306Z,18.90
2022-09-16T14:28:26.826Z,18.80
2022-09-16T14:30:58.270Z,18.80
2022-09-16T14:33:36.100Z,18.70
2022-09-16T14:36:14.861Z,18.70
2022-09-16T14:38:46.399Z,18.70
2022-09-16T14:41:27.028Z,18.70
2022-09-16T14:43:53.834Z,18.80
2022-09-16T14:46:20.663Z,18.80
2022-09-16T14:48:47.470Z,18.80
2022-09-16T14:51:23.392Z,18.90
2022-09-16T14:54:15.493Z,18.90
2022-09-16T14:56:42.459Z,19.00
2022-09-16T14:59:12.873Z,19.10
2022-09-16T15:01:39.702Z,19.10
2022-09-16T15:04:16.332Z,19.10
2022-09-16T15:06:48.396Z,19.10
2022-09-16T15:09:43.080Z,19.10
2022-09-16T15:12:29.527Z,19.00
2022-09-16T15:14:56.824Z,19.10
2022-09-16T15:17:26.039Z,19.10
2022-09-16T15:19:56.854Z,19.10
2022-09-16T15:22:23.753Z,19.10
2022-09-16T15:24:53.096Z,19.10
2022-09-16T15:27:28.927Z,19.00
2022-09-16T15:30:00.006Z,19.00
2022-09-16T15:32:31.952Z,19.00
2022-09-16T15:35:20.562Z,18.90
2022-09-16T15:37:48.468Z,18.90
2022-09-16T15:40:31.854Z,18.80
2022-09-16T15:43:10.514Z,18.80
2022-09-16T15:45:39.137Z,18.70
2022-09-16T15:48:25.808Z,18.70
2022-09-16T15:51:00.069Z,18.60
2022-09-16T15:53:29.975Z,18.60
2022-09-16T15:56:04.808Z,18.50
2022-09-16T15:58:44.573Z,18.50
2022-09-16T16:01:21.947Z,18.50
2022-09-16T16:03:54.178Z,18.40
2022-09-16T16:06:22.094Z,18.40
2022-09-16T16:08:52.621Z,18.40
2022-09-16T16:11:20.751Z,18.30
2022-09-16T16:13:47.807Z,18.30
2022-09-16T16:16:15.272Z,18.20
2022-09-16T16:18:43.010Z,18.20
2022-09-16T16:21:14.305Z,18.20
2022-09-16T16:23:43.968Z,18.10
2022-09-16T16:26:11.236Z,18.10
2022-09-16T16:28:38.709Z,18.00
2022-09-16T16:31:16.062Z,17.90
2022-09-16T16:33:44.989Z,17.90
2022-09-16T16:36:15.825Z,17.90
2022-09-16T16:38:42.775Z,17.80
2022-09-16T16:41:10.719Z,17.80
2022-09-16T16:43:38.715Z,17.70
2022-09-16T16:46:05.694Z,17.70
2022-09-16T16:48:32.538Z,17.60
2022-09-16T16:51:01.372Z,17.60
2022-09-16T16:53:28.814Z,17.40
2022-09-16T16:56:02.185Z,17.30
2022-09-16T16:58:35.571Z,17.20
2022-09-16T17:01:13.331Z,17.20
2022-09-16T17:03:40.736Z,17.10
2022-09-16T17:06:07.776Z,17.00
2022-09-16T17:08:35.372Z,16.90
2022-09-16T17:11:10.311Z,16.80
2022-09-16T17:13:44.521Z,16.80
2022-09-16T17:16:12.742Z,16.80
2022-09-16T17:18:40.335Z,16.60
2022-09-16T17:21:15.600Z,16.70
2022-09-16T17:23:42.669Z,16.60
2022-09-16T17:26:09.946Z,16.50
2022-09-16T17:28:39.485Z,16.40
2022-09-16T17:31:20.635Z,16.40
2022-09-16T17:34:03.620Z,16.40
2022-09-16T17:36:47.445Z,16.30
2022-09-16T17:39:33.327Z,16.30
2022-09-16T17:42:15.644Z,16.20
2022-09-16T17:44:54.509Z,16.10
2022-09-16T17:47:39.438Z,15.90
2022-09-16T17:50:23.204Z,15.70
2022-09-16T17:53:02.845Z,15.60
2022-09-16T17:55:41.769Z,15.40
2022-09-16T17:58:23.375Z,15.20
2022-09-16T18:01:06.837Z,15.10
2022-09-16T18:03:53.515Z,15.00
2022-09-16T18:06:52.114Z,14.90
2022-09-16T18:09:38.948Z,14.90
2022-09-16T18:12:11.694Z,14.80
2022-09-16T18:14:51.011Z,14.80
2022-09-16T18:17:32.059Z,14.80
2022-09-16T18:20:15.545Z,14.80
2022-09-16T18:22:55.733Z,14.80
2022-09-16T18:25:44.730Z,14.80
2022-09-16T18:28:20.724Z,14.80
2022-09-16T18:31:18.373Z,14.80
2022-09-16T18:34:03.479Z,14.80
2022-09-16T18:36:46.272Z,14.70
2022-09-16T18:39:25.726Z,14.80
2022-09-16T18:42:06.647Z,14.70
2022-09-16T18:44:43.628Z,14.70
2022-09-16T18:47:29.114Z,14.70
2022-09-16T18:50:12.211Z,14.70
2022-09-16T18:52:52.498Z,14.60
2022-09-16T18:55:24.102Z,14.70
2022-09-16T18:58:03.055Z,14.60
2022-09-16T19:00:41.151Z,14.60
2022-09-16T19:03:15.958Z,14.50
2022-09-16T19:05:57.506Z,14.70
2022-09-16T19:08:47.768Z,14.50
2022-09-16T19:11:26.970Z,14.50
2022-09-16T19:14:05.660Z,14.40
2022-09-16T19:16:48.469Z,14.40
2022-09-16T19:19:29.043Z,14.20
2022-09-16T19:22:13.518Z,14.10
2022-09-16T19:24:59.902Z,14.10
2022-09-16T19:27:40.666Z,14.00
2022-09-16T19:30:20.579Z,13.90
2022-09-16T19:33:18.149Z,13.80
2022-09-16T19:35:55.287Z,13.70
2022-09-16T19:38:38.552Z,13.60
2022-09-16T19:41:16.600Z,13.50
2022-09-16T19:44:05.393Z,13.40
2022-09-16T19:46:47.159Z,13.30
2022-09-16T19:49:30.975Z,13.30
2022-09-16T19:52:10.754Z,13.20
2022-09-16T19:54:50.911Z,13.20
2022-09-16T19:57:34.531Z,13.20
2022-09-16T20:00:41.339Z,13.20
2022-09-16T20:03:24.976Z,13.10
2022-09-16T20:06:27.956Z,13.20
2022-09-16T20:09:20.035Z,13.30
2022-09-16T20:11:56.703Z,13.10
2022-09-16T20:14:42.720Z,13.00
2022-09-16T20:17:27.567Z,12.90
2022-09-16T20:20:06.553Z,13.00
2022-09-16T20:22:45.565Z,12.90
2022-09-16T20:25:26.211Z,13.00
2022-09-16T20:28:09.825Z,12.90
2022-09-16T20:30:55.853Z,12.80
2022-09-16T20:33:33.372Z,12.80
2022-09-16T20:36:19.577Z,12.80
2022-09-16T20:39:03.720Z,12.80
2022-09-16T20:41:42.858Z,12.70
2022-09-16T20:44:26.437Z,12.70
2022-09-16T20:47:10.141Z,12.70
2022-09-16T20:49:46.666Z,12.60
2022-09-16T20:52:23.745Z,12.60
2022-09-16T20:55:09.452Z,12.60
2022-09-16T20:57:48.897Z,12.60
2022-09-16T21:00:34.722Z,12.60
2022-09-16T21:03:16.694Z,12.60
2022-09-16T21:05:57.568Z,12.60
2022-09-16T21:08:39.105Z,12.60
2022-09-16T21:11:30.583Z,12.70
2022-09-16T21:14:15.618Z,12.80
2022-09-16T21:16:57.488Z,12.90
2022-09-16T21:19:36.712Z,13.00
2022-09-16T21:22:20.955Z,13.00
2022-09-16T21:24:56.796Z,13.00
2022-09-16T21:27:32.543Z,13.10
2022-09-16T21:30:16.731Z,13.10
2022-09-16T21:32:58.711Z,13.20
